Time;durP1;ratioP1;P1;durP2;ratioP2;P2;SDS_P1;SDS_P2;PMS_P1;PMS_P2;Temp;Humidity;BMP_temperature;BMP_pressure;BME280_temperature;BME280_humidity;BME280_pressure;Samples;Min_cycle;Max_cycle;Signal;HPM_P1;HPM_P2
2023/01/30 00:03:47;;;;;;;46.10;23.57;;;4.80;99.90;;;;;;4960728;23;20420;-91
2023/01/30 00:06:31;;;;;;;45.53;24.27;;;4.50;99.90;;;;;;4908423;23;20070;-90
2023/01/30 00:08:57;;;;;;;;;;;4.50;99.90;;;;;;4924073;29;20040;-90
2023/01/30 00:11:45;;;;;;;47.20;25.03;;;4.20;99.90;;;;;;4903304;29;19919;-90
2023/01/30 00:14:26;;;;;;;41.80;23.53;;;4.60;99.90;;;;;;4918215;29;20119;-90
2023/01/30 00:16:52;;;;;;;43.87;23.43;;;5.30;99.90;;;;;;4904300;29;20097;-90
2023/01/30 00:19:27;;;;;;;39.93;21.23;;;6.40;99.90;;;;;;4901180;29;20048;-90
2023/01/30 00:21:52;;;;;;;41.33;23.70;;;3.40;99.90;;;;;;4900306;29;20047;-90
2023/01/30 00:24:18;;;;;;;43.47;22.17;;;5.60;99.90;;;;;;4883504;29;20049;-90
2023/01/30 00:26:49;;;;;;;43.70;24.23;;;5.20;99.90;;;;;;4883112;29;20167;-90
2023/01/30 00:29:15;;;;;;;40.53;21.10;;;4.10;99.90;;;;;;4884044;29;20049;-90
2023/01/30 00:31:52;;;;;;;41.80;20.97;;;5.80;99.90;;;;;;4893910;29;20059;-89
2023/01/30 00:34:18;;;;;;;39.13;21.83;;;4.80;99.90;;;;;;4882946;29;20052;-90
2023/01/30 00:37:02;;;;;;;39.03;22.93;;;5.20;99.90;;;;;;4899944;29;20045;-89
2023/01/30 00:39:28;;;;;;;47.17;23.53;;;4.70;99.90;;;;;;4900034;29;20059;-90
2023/01/30 00:48:27;;;;;;;42.07;22.73;;;5.30;99.90;;;;;;4920480;29;20055;-90
2023/01/30 00:51:18;;;;;;;40.80;22.73;;;6.10;99.90;;;;;;4908331;23;20509;-90
2023/01/30 00:53:50;;;;;;;41.27;22.90;;;5.40;99.90;;;;;;4902552;29;20094;-90
2023/01/30 00:56:15;;;;;;;40.83;21.70;;;7.50;99.90;;;;;;4920315;29;20190;-90
2023/01/30 00:58:56;;;;;;;39.40;21.67;;;5.00;99.90;;;;;;4919454;29;20480;-91
2023/01/30 01:01:22;;;;;;;41.23;21.83;;;6.50;99.90;;;;;;4926838;23;20150;-91
2023/01/30 01:04:07;;;;;;;40.83;22.30;;;6.90;99.90;;;;;;4902650;29;20139;-90
2023/01/30 01:06:33;;;;;;;39.47;22.37;;;6.00;99.90;;;;;;4919413;29;20068;-91
2023/01/30 01:09:10;;;;;;;37.53;19.77;;;5.50;99.90;;;;;;4928697;29;20036;-91
2023/01/30 01:11:36;;;;;;;39.37;22.53;;;7.60;99.90;;;;;;4921661;29;20048;-91
2023/01/30 01:14:10;;;;;;;38.77;21.33;;;6.90;99.90;;;;;;4901718;29;20055;-91
2023/01/30 01:16:36;;;;;;;36.43;20.23;;;4.80;99.90;;;;;;4901689;29;20131;-90
2023/01/30 01:19:27;;;;;;;37.47;21.30;;;7.00;99.90;;;;;;4925863;23;20079;-90
2023/01/30 01:22:08;;;;;;;35.33;18.93;;;4.70;99.90;;;;;;4918332;29;20071;-90
2023/01/30 01:24:59;;;;;;;38.07;20.13;;;5.40;99.90;;;;;;4954248;23;20048;-90
2023/01/30 01:27:34;;;;;;;38.63;20.90;;;5.80;99.90;;;;;;4917156;29;20054;-90
2023/01/30 01:30:15;;;;;;;37.83;19.23;;;5.80;99.90;;;;;;4938433;23;20031;-89
2023/01/30 01:33:02;;;;;;;39.63;21.27;;;5.70;99.90;;;;;;4900765;29;20063;-92
2023/01/30 01:38:07;;;;;;;40.47;20.83;;;5.80;99.90;;;;;;4939095;23;20059;-89
2023/01/30 01:51:43;;;;;;;34.53;18.80;;;5.80;99.90;;;;;;4916160;29;20162;-90
2023/01/30 01:54:18;;;;;;;35.73;18.57;;;5.10;99.90;;;;;;4916811;29;20048;-90
2023/01/30 01:56:47;;;;;;;37.43;19.07;;;7.00;99.90;;;;;;4899748;29;20044;-91
2023/01/30 01:59:50;;;;;;;32.73;16.73;;;5.60;99.90;;;;;;4899454;29;20040;-90
2023/01/30 02:02:16;;;;;;;35.80;18.53;;;6.80;99.90;;;;;;4916671;29;20085;-89
2023/01/30 02:07:21;;;;;;;30.57;15.70;;;6.00;99.90;;;;;;4920482;23;20056;-89
2023/01/30 02:09:49;;;;;;;31.90;15.43;;;6.10;99.90;;;;;;4899603;29;20055;-89
2023/01/30 02:12:17;;;;;;;33.33;14.60;;;5.20;99.90;;;;;;4899571;29;20393;-89
2023/01/30 02:14:47;;;;;;;28.13;14.40;;;5.00;99.90;;;;;;4916295;29;20044;-88
2023/01/30 02:17:13;;;;;;;30.10;14.93;;;5.60;99.90;;;;;;4900013;29;20051;-88
2023/01/30 02:20:04;;;;;;;30.33;15.03;;;5.50;99.90;;;;;;4915410;29;20497;-89
2023/01/30 02:22:51;;;;;;;25.93;12.87;;;6.00;99.90;;;;;;4929065;28;20036;-89
2023/01/30 02:25:38;;;;;;;25.03;12.90;;;6.20;99.90;;;;;;4902540;29;20063;-89
2023/01/30 02:28:25;;;;;;;28.53;13.93;;;6.10;99.90;;;;;;4915923;29;20052;-89
2023/01/30 02:33:40;;;;;;;19.83;10.23;;;6.10;99.90;;;;;;4920164;23;20048;-88
2023/01/30 02:36:29;;;;;;;22.57;11.17;;;6.20;99.90;;;;;;4902514;29;20091;-88
2023/01/30 02:39:15;;;;;;;20.27;10.17;;;6.60;99.90;;;;;;4916770;29;20055;-89
2023/01/30 02:42:03;;;;;;;22.33;10.50;;;6.20;99.90;;;;;;4899504;29;20400;-88
2023/01/30 02:44:36;;;;;;;22.30;11.10;;;6.30;99.90;;;;;;4899401;29;20044;-89
2023/01/30 02:47:20;;;;;;;22.27;9.73;;;7.30;99.90;;;;;;4919277;29;20048;-88
2023/01/30 02:50:02;;;;;;;18.08;9.55;;;7.40;99.90;;;;;;4899772;29;20032;-88
2023/01/30 02:52:29;;;;;;;18.60;8.97;;;8.00;99.90;;;;;;4915464;29;20056;-89
2023/01/30 02:54:54;;;;;;;18.10;8.00;;;8.10;99.90;;;;;;4902198;29;20129;-89
2023/01/30 02:57:24;;;;;;;18.07;8.03;;;7.80;99.90;;;;;;4920497;29;20075;-90
2023/01/30 03:00:02;;;;;;;16.30;7.70;;;7.80;99.90;;;;;;4919822;29;20052;-89
2023/01/30 03:03:06;;;;;;;15.73;6.90;;;5.90;99.90;;;;;;4922875;29;20044;-89
2023/01/30 03:05:34;;;;;;;15.60;6.70;;;6.30;99.90;;;;;;4920205;29;20048;-89
2023/01/30 03:08:47;;;;;;;17.17;6.20;;;6.30;99.90;;;;;;4903475;29;20131;-89
2023/01/30 03:11:41;;;;;;;15.00;6.77;;;6.50;99.90;;;;;;4903106;29;20135;-89
2023/01/30 03:14:25;;;;;;;13.40;5.50;;;7.50;99.90;;;;;;4909503;23;20066;-89
2023/01/30 03:16:58;;;;;;;13.85;5.40;;;7.10;99.90;;;;;;4903445;29;20052;-89
2023/01/30 03:19:25;;;;;;;12.73;5.30;;;7.10;99.90;;;;;;4909764;29;20056;-88
2023/01/30 03:21:51;;;;;;;16.77;4.90;;;8.20;99.90;;;;;;4921441;29;20520;-88
2023/01/30 03:24:22;;;;;;;11.93;4.80;;;7.10;99.90;;;;;;4905317;29;20084;-89
2023/01/30 03:26:55;;;;;;;13.47;5.00;;;6.50;99.90;;;;;;4923532;29;20515;-89
2023/01/30 03:29:21;;;;;;;14.95;5.55;;;6.50;99.90;;;;;;4921445;29;20044;-89
2023/01/30 03:31:47;;;;;;;14.43;5.27;;;8.00;99.90;;;;;;4901982;29;20048;-90
2023/01/30 03:34:24;;;;;;;17.60;5.53;;;6.40;99.90;;;;;;4912819;23;20056;-90
2023/01/30 03:37:03;;;;;;;16.60;5.70;;;7.60;99.90;;;;;;4910372;29;20061;-89
2023/01/30 03:39:29;;;;;;;12.37;5.40;;;5.70;99.90;;;;;;4920037;29;20060;-91
2023/01/30 03:41:55;;;;;;;17.47;5.60;;;7.80;99.90;;;;;;4902493;29;20115;-90
2023/01/30 03:44:20;;;;;;;13.23;5.13;;;7.40;99.90;;;;;;4901914;29;20434;-89
2023/01/30 03:46:46;;;;;;;16.37;5.47;;;6.30;99.90;;;;;;4919389;29;20095;-90
2023/01/30 03:49:26;;;;;;;16.07;5.33;;;6.50;99.90;;;;;;4919492;29;20409;-89
2023/01/30 03:52:01;;;;;;;19.90;6.13;;;6.30;99.90;;;;;;4902396;29;20050;-90
2023/01/30 03:54:27;;;;;;;14.30;4.63;;;7.80;99.90;;;;;;4919373;29;20040;-91
2023/01/30 03:56:53;;;;;;;14.97;4.77;;;6.40;99.90;;;;;;4902284;29;20106;-90
2023/01/30 03:59:18;;;;;;;16.43;4.60;;;6.20;99.90;;;;;;4919218;29;20107;-90
2023/01/30 04:01:47;;;;;;;14.73;4.70;;;8.40;99.90;;;;;;4919413;29;20131;-89
2023/01/30 04:04:13;;;;;;;17.77;5.20;;;7.20;99.90;;;;;;4919005;29;20051;-91
2023/01/30 04:06:54;;;;;;;14.80;4.90;;;6.50;99.90;;;;;;4899437;29;20044;-91
2023/01/30 04:12:54;;;;;;;17.00;4.43;;;6.60;99.90;;;;;;4928555;29;20039;-92
2023/01/30 04:15:26;;;;;;;12.80;4.53;;;5.80;99.90;;;;;;4908814;29;20084;-90
2023/01/30 04:17:51;;;;;;;16.03;4.33;;;6.60;99.90;;;;;;4919101;29;20099;-89
2023/01/30 04:20:19;;;;;;;14.63;4.63;;;6.90;99.90;;;;;;4918494;29;20052;-90
2023/01/30 04:22:44;;;;;;;15.97;4.60;;;6.50;99.90;;;;;;4933921;23;20229;-90
2023/01/30 04:25:17;;;;;;;14.27;4.13;;;6.90;99.90;;;;;;4886535;29;20404;-90
2023/01/30 04:27:47;;;;;;;22.38;4.57;;;7.60;99.90;;;;;;4882383;29;20058;-90
2023/01/30 04:30:13;;;;;;;16.73;4.47;;;6.60;99.90;;;;;;4905020;23;20406;-90
2023/01/30 04:32:54;;;;;;;16.57;4.33;;;6.40;99.90;;;;;;4893957;29;20044;-90
2023/01/30 04:35:29;;;;;;;18.40;4.30;;;6.30;99.90;;;;;;4905802;29;20051;-90
2023/01/30 04:38:38;;;;;;;18.30;4.30;;;7.60;99.90;;;;;;4902460;29;20430;-90
2023/01/30 04:41:22;;;;;;;18.03;4.90;;;5.80;99.90;;;;;;4901374;29;20108;-90
2023/01/30 04:43:56;;;;;;;16.13;4.57;;;6.20;99.90;;;;;;4901619;29;20045;-89
2023/01/30 04:46:37;;;;;;;16.80;4.70;;;8.50;99.90;;;;;;4884598;29;20057;-90
2023/01/30 04:49:03;;;;;;;17.20;4.20;;;7.50;99.90;;;;;;4900447;29;20072;-89
2023/01/30 04:51:29;;;;;;;16.83;4.60;;;7.70;99.90;;;;;;4913894;29;20521;-90
2023/01/30 04:54:10;;;;;;;18.27;4.20;;;6.20;99.90;;;;;;4885834;29;20548;-91
2023/01/30 04:56:45;;;;;;;21.43;5.50;;;6.90;99.90;;;;;;4884469;29;20501;-90
2023/01/30 04:59:23;;;;;;;18.40;4.20;;;6.30;99.90;;;;;;4901832;29;20037;-90
2023/01/30 05:01:48;;;;;;;17.87;5.13;;;8.20;99.90;;;;;;4894784;29;20044;-90
2023/01/30 05:04:26;;;;;;;17.63;4.23;;;7.80;99.90;;;;;;4919512;29;20051;-90
2023/01/30 05:06:52;;;;;;;20.40;4.97;;;7.40;99.90;;;;;;4920127;29;20388;-90
2023/01/30 05:09:21;;;;;;;18.20;4.50;;;6.70;99.90;;;;;;4902598;29;20559;-89
2023/01/30 05:11:47;;;;;;;17.60;4.10;;;7.40;99.90;;;;;;4901671;29;20055;-90
2023/01/30 05:14:25;;;;;;;17.33;4.10;;;5.70;99.90;;;;;;4901513;29;20103;-91
2023/01/30 05:17:06;;;;;;;16.43;4.10;;;7.60;99.90;;;;;;4917290;29;20469;-89
2023/01/30 05:19:31;;;;;;;14.63;3.57;;;6.20;99.90;;;;;;4900957;29;20039;-90
2023/01/30 05:21:57;;;;;;;20.40;3.97;;;7.40;99.90;;;;;;4900723;29;20044;-90
2023/01/30 05:24:22;;;;;;;17.50;4.73;;;6.20;99.90;;;;;;4906901;23;20413;-91
2023/01/30 05:27:06;;;;;;;18.02;3.67;;;7.60;99.90;;;;;;4911476;29;20063;-89
2023/01/30 05:29:43;;;;;;;19.23;4.20;;;6.90;99.90;;;;;;4924845;29;20044;-89
2023/01/30 05:32:34;;;;;;;19.00;4.17;;;5.40;99.90;;;;;;4901360;29;20051;-90
2023/01/30 05:35:00;;;;;;;17.23;3.70;;;6.00;99.90;;;;;;4900344;29;20052;-90
2023/01/30 05:37:38;;;;;;;18.13;3.90;;;6.60;99.90;;;;;;4917636;29;20047;-90
2023/01/30 05:40:05;;;;;;;19.57;4.43;;;6.00;99.90;;;;;;4917947;29;20056;-91
2023/01/30 05:42:46;;;;;;;17.53;4.43;;;6.00;99.90;;;;;;4916759;29;20449;-90
2023/01/30 05:45:11;;;;;;;24.30;10.17;;;5.40;99.90;;;;;;4917258;29;20044;-90
2023/01/30 05:47:50;;;;;;;15.67;3.97;;;6.40;99.90;;;;;;4917641;29;20115;-90
2023/01/30 05:50:37;;;;;;;19.90;4.97;;;5.60;99.90;;;;;;4900294;29;20476;-91
2023/01/30 05:53:02;;;;;;;17.70;3.87;;;7.80;99.90;;;;;;4917420;29;20075;-90
2023/01/30 05:55:37;;;;;;;18.37;3.77;;;6.30;99.90;;;;;;4917908;29;20392;-91
2023/01/30 05:58:15;;;;;;;17.27;3.70;;;6.90;99.90;;;;;;4916436;29;20559;-90
2023/01/30 06:00:41;;;;;;;17.60;4.07;;;7.00;99.90;;;;;;4900979;29;20044;-91
2023/01/30 06:03:06;;;;;;;22.07;3.90;;;7.50;99.90;;;;;;4918641;29;20055;-90
2023/01/30 06:05:32;;;;;;;18.47;3.60;;;5.80;99.90;;;;;;4914678;29;20044;-90
2023/01/30 06:07:58;;;;;;;15.40;3.93;;;6.60;99.90;;;;;;4919554;29;20044;-90
2023/01/30 06:10:23;;;;;;;14.67;3.30;;;5.50;99.90;;;;;;4917913;29;20040;-90
2023/01/30 06:12:49;;;;;;;18.43;3.40;;;5.40;99.90;;;;;;4900394;29;20071;-90
2023/01/30 06:15:24;;;;;;;18.90;3.43;;;5.40;99.90;;;;;;4904774;29;20052;-90
2023/01/30 06:17:59;;;;;;;19.87;3.73;;;7.10;99.90;;;;;;4902083;29;20051;-89
2023/01/30 06:20:24;;;;;;;21.73;4.53;;;5.40;99.90;;;;;;4904699;29;20509;-90
2023/01/30 06:22:55;;;;;;;19.67;4.07;;;5.40;99.90;;;;;;4904623;29;20057;-90
2023/01/30 06:25:21;;;;;;;20.70;3.90;;;5.80;99.90;;;;;;4921618;29;20059;-89
2023/01/30 06:28:02;;;;;;;20.10;3.90;;;5.40;99.90;;;;;;4901486;29;20048;-90
2023/01/30 06:30:28;;;;;;;25.23;4.13;;;5.30;99.90;;;;;;4932196;29;20036;-89
2023/01/30 06:32:54;;;;;;;21.90;4.47;;;4.90;99.90;;;;;;4923247;29;20051;-90
2023/01/30 06:35:40;;;;;;;19.90;4.27;;;4.60;99.90;;;;;;4901653;29;20048;-90
2023/01/30 06:38:23;;;;;;;19.63;3.60;;;5.60;99.90;;;;;;4921466;29;20048;-89
2023/01/30 06:40:49;;;;;;;19.65;3.40;;;5.00;99.90;;;;;;4918425;29;20048;-89
2023/01/30 06:43:32;;;;;;;15.17;3.63;;;6.10;99.90;;;;;;4918362;29;20095;-90
2023/01/30 06:45:59;;;;;;;19.83;4.40;;;6.60;99.90;;;;;;4897810;29;20438;-90
2023/01/30 06:48:38;;;;;;;19.07;3.90;;;5.20;99.90;;;;;;4895423;29;20489;-90
2023/01/30 06:51:04;;;;;;;22.33;4.53;;;5.00;99.90;;;;;;4899649;29;20135;-90
2023/01/30 06:53:39;;;;;;;19.60;3.53;;;5.20;99.90;;;;;;4898950;29;20138;-91
2023/01/30 06:56:05;;;;;;;17.63;3.90;;;5.40;99.90;;;;;;4916318;29;20099;-90
2023/01/30 06:58:52;;;;;;;19.30;3.57;;;5.20;99.90;;;;;;4963708;23;20150;-90
2023/01/30 07:01:18;;;;;;;21.77;3.90;;;4.60;99.90;;;;;;4934954;29;20052;-90
2023/01/30 07:03:55;;;;;;;20.70;3.60;;;6.70;99.90;;;;;;4935277;29;20048;-91
2023/01/30 07:06:21;;;;;;;24.03;4.07;;;5.90;99.90;;;;;;4935479;29;20036;-84
2023/01/30 07:09:01;;;;;;;21.87;3.47;;;5.40;99.90;;;;;;4934396;29;20401;-83
2023/01/30 07:11:38;;;;;;;18.67;3.67;;;5.10;99.90;;;;;;4935481;29;20044;-84
2023/01/30 07:14:12;;;;;;;14.23;3.30;;;5.40;99.90;;;;;;4934528;29;20102;-83
2023/01/30 07:16:38;;;;;;;21.83;4.03;;;5.00;99.90;;;;;;4934418;29;20047;-83
2023/01/30 07:19:03;;;;;;;17.33;3.43;;;5.30;99.90;;;;;;4934523;29;20058;-84
2023/01/30 07:21:29;;;;;;;19.60;4.00;;;5.30;99.90;;;;;;4918245;29;20453;-83
2023/01/30 07:23:55;;;;;;;20.27;3.53;;;5.30;99.90;;;;;;4917081;29;20055;-84
2023/01/30 07:26:20;;;;;;;20.30;3.43;;;5.30;99.90;;;;;;4918299;29;20078;-85
2023/01/30 07:28:46;;;;;;;20.37;4.37;;;5.30;99.90;;;;;;4917073;29;20043;-85
2023/01/30 07:31:12;;;;;;;22.80;3.80;;;6.30;99.90;;;;;;4917698;29;20179;-84
2023/01/30 07:33:37;;;;;;;18.63;3.70;;;5.40;99.90;;;;;;4918100;29;20400;-84
2023/01/30 07:36:03;;;;;;;22.93;4.10;;;5.30;99.90;;;;;;4917356;29;20048;-83
2023/01/30 07:38:29;;;;;;;19.27;3.43;;;5.40;99.90;;;;;;4934981;29;20444;-83
2023/01/30 07:40:56;;;;;;;19.97;3.43;;;5.40;99.90;;;;;;4918979;29;20043;-83
2023/01/30 07:43:22;;;;;;;22.33;3.67;;;5.40;99.90;;;;;;4937621;29;20051;-83
2023/01/30 07:45:48;;;;;;;18.53;4.03;;;5.50;99.90;;;;;;4937804;29;20040;-83
2023/01/30 07:48:18;;;;;;;17.37;3.77;;;6.20;99.90;;;;;;4921394;29;20055;-83
2023/01/30 07:50:44;;;;;;;21.20;3.47;;;5.40;99.90;;;;;;4937651;29;20039;-83
2023/01/30 07:53:13;;;;;;;20.50;3.70;;;5.50;99.90;;;;;;4920810;29;20044;-83
2023/01/30 07:55:39;;;;;;;16.37;4.57;;;5.50;99.90;;;;;;4937751;29;20538;-83
2023/01/30 07:58:05;;;;;;;24.43;3.93;;;5.50;99.90;;;;;;4919239;29;20066;-84
2023/01/30 08:00:31;;;;;;;21.83;4.27;;;5.50;99.90;;;;;;4920877;29;20412;-82
2023/01/30 08:02:57;;;;;;;20.87;3.97;;;5.40;99.90;;;;;;4920895;29;20044;-84
2023/01/30 08:05:22;;;;;;;17.37;3.43;;;5.50;99.90;;;;;;4920302;29;20130;-84
2023/01/30 08:07:48;;;;;;;18.70;3.70;;;5.50;99.90;;;;;;4938440;29;20466;-85
2023/01/30 08:10:14;;;;;;;21.07;3.60;;;5.50;99.90;;;;;;4921121;29;20052;-85
2023/01/30 08:12:40;;;;;;;18.53;3.60;;;5.60;99.90;;;;;;4920891;29;20492;-84
2023/01/30 08:15:07;;;;;;;19.83;4.87;;;5.60;99.90;;;;;;4924107;29;20054;-85
2023/01/30 08:17:33;;;;;;;21.50;4.50;;;5.70;99.90;;;;;;4921026;29;20066;-83
2023/01/30 08:19:59;;;;;;;20.40;3.80;;;6.80;99.90;;;;;;4932208;29;20484;-83
2023/01/30 08:22:24;;;;;;;20.67;4.47;;;5.60;99.90;;;;;;4910337;29;20048;-82
2023/01/30 08:24:50;;;;;;;20.87;4.10;;;5.60;99.90;;;;;;4912025;29;20091;-83
2023/01/30 08:27:15;;;;;;;20.37;3.93;;;5.60;99.90;;;;;;4911485;29;20125;-83
2023/01/30 08:29:42;;;;;;;17.23;3.27;;;5.70;99.90;;;;;;4918954;29;20098;-83
2023/01/30 08:32:08;;;;;;;15.57;3.43;;;5.90;99.90;;;;;;4936347;29;20052;-82
2023/01/30 08:34:34;;;;;;;21.73;4.27;;;5.70;99.90;;;;;;4941268;29;20044;-83
2023/01/30 08:37:00;;;;;;;20.97;4.80;;;6.90;99.90;;;;;;4919750;29;20047;-83
2023/01/30 08:39:26;;;;;;;22.77;4.07;;;5.80;99.90;;;;;;4936790;29;20115;-83
2023/01/30 08:41:51;;;;;;;19.40;3.67;;;5.90;99.90;;;;;;4920209;29;20055;-83
2023/01/30 08:44:17;;;;;;;17.27;3.63;;;5.80;99.90;;;;;;4920175;29;20082;-83
2023/01/30 08:46:44;;;;;;;21.17;3.50;;;5.90;99.90;;;;;;4919586;29;20095;-83
2023/01/30 08:49:10;;;;;;;25.97;4.77;;;5.90;99.90;;;;;;4919666;29;20035;-83
2023/01/30 08:51:35;;;;;;;18.60;3.30;;;6.60;99.90;;;;;;4936070;29;20126;-83
2023/01/30 08:54:01;;;;;;;21.07;3.63;;;5.90;99.90;;;;;;4918510;29;20039;-83
2023/01/30 08:56:27;;;;;;;21.90;3.93;;;6.00;99.90;;;;;;4936317;29;20040;-83
2023/01/30 08:58:52;;;;;;;21.93;4.43;;;6.00;99.90;;;;;;4899670;29;20454;-83
2023/01/30 09:01:18;;;;;;;23.50;4.37;;;6.00;99.90;;;;;;4918471;29;20131;-83
2023/01/30 09:03:43;;;;;;;17.03;3.57;;;6.00;99.90;;;;;;4900132;29;20048;-83
2023/01/30 09:06:09;;;;;;;17.50;3.77;;;6.00;99.90;;;;;;4899699;29;20401;-83
2023/01/30 09:08:35;;;;;;;20.57;3.53;;;6.10;99.90;;;;;;4921473;29;20389;-83
2023/01/30 09:11:03;;;;;;;22.87;4.40;;;6.00;99.90;;;;;;4905967;29;20040;-83
2023/01/30 09:13:29;;;;;;;22.43;4.03;;;6.00;99.90;;;;;;4910663;29;20195;-83
2023/01/30 09:15:56;;;;;;;21.33;4.50;;;6.00;99.90;;;;;;4935258;29;20043;-84
2023/01/30 09:18:22;;;;;;;25.90;4.83;;;6.00;99.90;;;;;;4918776;29;20055;-84
2023/01/30 09:20:47;;;;;;;17.07;3.77;;;6.10;99.90;;;;;;4936088;29;20039;-84
2023/01/30 09:23:13;;;;;;;30.10;3.97;;;6.10;99.90;;;;;;4935509;29;20044;-85
2023/01/30 09:25:39;;;;;;;19.13;3.93;;;6.10;99.90;;;;;;4936680;29;20483;-86
2023/01/30 09:28:24;;;;;;;;;;;;;;;;;;;;;
2023/01/30 09:34:47;;;;;;;22.87;4.53;;;5.30;99.90;;;;;;4936145;29;20051;-85
2023/01/30 09:37:21;;;;;;;20.33;3.37;;;5.90;99.90;;;;;;4918898;29;20043;-82
2023/01/30 09:39:47;;;;;;;21.57;3.80;;;8.10;99.90;;;;;;4928311;29;20061;-82
2023/01/30 09:42:34;;;;;;;17.47;3.50;;;6.10;99.90;;;;;;4938801;29;20040;-82
2023/01/30 09:45:34;;;;;;;21.90;4.07;;;7.10;99.90;;;;;;4918882;29;20157;-82
2023/01/30 09:48:21;;;;;;;16.60;4.07;;;7.20;99.90;;;;;;4923294;29;20048;-82
2023/01/30 09:51:38;;;;;;;20.47;4.33;;;6.40;99.90;;;;;;4919205;29;20055;-83
2023/01/30 09:54:29;;;;;;;19.83;4.63;;;6.60;99.90;;;;;;4906491;29;20464;-82
2023/01/30 09:57:17;;;;;;;22.60;4.50;;;6.50;99.90;;;;;;4915654;29;20040;-82
2023/01/30 10:00:13;;;;;;;19.57;4.13;;;6.70;99.90;;;;;;4890435;29;20052;-83
2023/01/30 10:03:04;;;;;;;20.60;4.33;;;5.70;99.90;;;;;;4905917;29;20576;-83
2023/01/30 10:05:44;;;;;;;18.43;3.80;;;7.10;99.90;;;;;;4898511;29;20052;-83
2023/01/30 10:08:47;;;;;;;19.87;4.40;;;7.70;99.90;;;;;;4916162;29;20044;-83
2023/01/30 10:11:58;;;;;;;21.10;4.50;;;6.50;99.90;;;;;;4904253;29;20099;-84
2023/01/30 10:15:14;;;;;;;16.37;3.67;;;6.70;99.90;;;;;;4906998;29;20044;-83
2023/01/30 10:18:19;;;;;;;21.67;4.33;;;6.90;99.90;;;;;;4880211;29;20049;-84
2023/01/30 10:20:45;;;;;;;24.90;4.13;;;6.60;99.90;;;;;;4898206;29;20128;-82
2023/01/30 10:23:32;;;;;;;20.37;4.23;;;8.30;99.90;;;;;;4897406;29;20199;-84
2023/01/30 10:26:21;;;;;;;20.30;4.53;;;6.50;99.90;;;;;;4906779;29;20044;-86
2023/01/30 10:31:17;;;;;;;23.80;4.40;;;6.70;99.90;;;;;;4918521;23;20060;-84
2023/01/30 10:34:01;;;;;;;19.07;4.33;;;6.80;99.90;;;;;;4902196;29;20062;-84
2023/01/30 10:36:53;;;;;;;26.57;4.77;;;6.90;99.90;;;;;;4916559;29;20064;-83
2023/01/30 10:39:55;;;;;;;22.17;4.00;;;7.00;99.90;;;;;;4908080;29;20332;-83
2023/01/30 10:42:35;;;;;;;21.23;3.77;;;7.10;99.90;;;;;;4881777;29;20115;-85
2023/01/30 10:45:13;;;;;;;22.47;4.70;;;7.10;99.90;;;;;;4898165;29;20516;-87
2023/01/30 10:48:01;;;;;;;20.43;4.43;;;7.20;99.90;;;;;;4897908;29;20055;-85
2023/01/30 10:50:55;;;;;;;21.73;4.20;;;7.30;99.90;;;;;;4899310;29;20075;-84
2023/01/30 10:53:41;;;;;;;24.58;4.88;;;7.20;99.90;;;;;;4898422;29;20135;-84
2023/01/30 10:56:18;;;;;;;19.97;3.70;;;8.70;99.90;;;;;;4899227;29;20060;-82
2023/01/30 10:58:54;;;;;;;16.73;3.77;;;7.30;99.90;;;;;;4914750;29;20408;-82
2023/01/30 11:01:29;;;;;;;19.87;4.80;;;7.70;99.90;;;;;;4898130;29;20052;-83
2023/01/30 11:04:06;;;;;;;18.23;3.73;;;7.40;99.90;;;;;;4896867;29;20046;-82
2023/01/30 11:06:33;;;;;;;21.20;4.23;;;7.50;99.90;;;;;;4914741;29;20149;-82
2023/01/30 11:09:02;;;;;;;18.33;3.50;;;7.40;99.90;;;;;;4914098;29;20040;-81
2023/01/30 11:11:38;;;;;;;24.07;4.20;;;7.40;99.90;;;;;;4894343;29;20036;-82
2023/01/30 11:14:09;;;;;;;14.67;3.60;;;7.20;99.90;;;;;;4917619;29;20052;-81
2023/01/30 11:16:51;;;;;;;24.23;3.77;;;7.10;99.90;;;;;;4902717;29;20048;-81
2023/01/30 11:19:20;;;;;;;23.70;4.43;;;6.90;99.90;;;;;;4918312;29;20052;-80
2023/01/30 11:21:52;;;;;;;20.23;4.07;;;6.60;99.90;;;;;;4903929;29;20036;-80
2023/01/30 11:24:27;;;;;;;21.67;3.70;;;6.00;99.90;;;;;;4919912;29;20052;-80
2023/01/30 11:26:54;;;;;;;21.07;4.03;;;6.40;99.90;;;;;;4902094;29;20060;-80
2023/01/30 11:29:31;;;;;;;22.53;4.00;;;5.40;99.90;;;;;;4900884;29;20087;-80
2023/01/30 11:32:02;;;;;;;17.13;3.47;;;5.30;99.90;;;;;;4901958;29;20445;-80
2023/01/30 11:34:28;;;;;;;25.20;4.30;;;5.30;99.90;;;;;;4919567;29;20103;-80
2023/01/30 11:37:21;;;;;;;24.47;3.83;;;5.40;99.90;;;;;;4901398;29;20047;-80
2023/01/30 11:39:50;;;;;;;16.90;3.43;;;6.30;99.90;;;;;;4901855;29;20056;-81
2023/01/30 11:42:19;;;;;;;18.63;3.70;;;5.80;99.90;;;;;;4906424;23;20044;-80
2023/01/30 11:44:45;;;;;;;17.57;3.73;;;5.90;99.90;;;;;;4917335;29;20052;-83
2023/01/30 11:47:38;;;;;;;18.03;3.70;;;6.00;99.90;;;;;;4918066;29;20056;-84
2023/01/30 11:50:04;;;;;;;15.75;3.53;;;6.10;99.90;;;;;;4915253;29;20072;-84
2023/01/30 11:52:36;;;;;;;16.23;3.90;;;6.30;99.90;;;;;;4901589;29;20135;-84
2023/01/30 11:55:07;;;;;;;19.80;4.00;;;7.40;99.90;;;;;;4901091;29;20056;-84
2023/01/30 11:57:57;;;;;;;14.70;3.03;;;6.30;99.90;;;;;;4901072;29;20131;-84
2023/01/30 12:00:28;;;;;;;16.43;3.10;;;6.30;99.90;;;;;;4901923;29;20040;-86
2023/01/30 12:03:01;;;;;;;18.23;3.57;;;6.30;99.90;;;;;;4918477;29;20040;-83
2023/01/30 12:05:35;;;;;;;13.53;3.20;;;6.20;99.90;;;;;;4901650;29;20044;-84
2023/01/30 12:08:19;;;;;;;16.27;3.03;;;6.10;99.90;;;;;;4901952;29;20658;-84
2023/01/30 12:10:48;;;;;;;10.82;2.60;;;7.60;99.90;;;;;;4901172;29;20115;-84
2023/01/30 12:13:37;;;;;;;14.60;3.03;;;6.00;99.90;;;;;;4902029;29;20066;-84
2023/01/30 12:16:15;;;;;;;14.50;2.60;;;6.00;99.90;;;;;;4918549;29;20596;-84
2023/01/30 12:18:59;;;;;;;16.27;2.80;;;5.90;99.90;;;;;;4919598;29;20079;-83
2023/01/30 12:21:54;;;;;;;11.07;2.50;;;5.90;99.90;;;;;;4901529;29;20040;-83
2023/01/30 12:24:41;;;;;;;11.70;2.47;;;6.10;99.90;;;;;;4899401;29;20059;-82
2023/01/30 12:27:40;;;;;;;10.70;2.57;;;6.30;99.90;;;;;;4916667;29;20048;-83
2023/01/30 12:30:17;;;;;;;10.73;2.10;;;6.40;99.90;;;;;;4894339;29;20088;-83
2023/01/30 12:32:43;;;;;;;9.80;2.43;;;6.50;99.90;;;;;;4899205;29;20119;-83
2023/01/30 12:35:26;;;;;;;11.17;2.23;;;6.50;99.90;;;;;;4898870;29;20489;-82
2023/01/30 12:37:58;;;;;;;10.53;2.00;;;6.50;99.90;;;;;;4882278;29;20044;-84
2023/01/30 12:40:34;;;;;;;12.80;2.30;;;6.50;99.90;;;;;;4898881;29;20049;-83
2023/01/30 12:43:22;;;;;;;14.30;4.03;;;6.40;99.90;;;;;;4899404;29;20352;-83
2023/01/30 12:46:04;;;;;;;18.30;5.43;;;6.40;99.90;;;;;;4882638;29;20059;-83
2023/01/30 12:48:36;;;;;;;12.93;3.17;;;6.30;99.90;;;;;;4883995;29;20056;-82
2023/01/30 12:51:36;;;;;;;13.10;3.30;;;6.40;99.90;;;;;;4912387;29;20048;-83
2023/01/30 12:54:17;;;;;;;13.23;3.20;;;6.40;99.90;;;;;;4915689;29;20103;-83
2023/01/30 12:56:45;;;;;;;12.70;3.20;;;6.40;99.90;;;;;;4895814;29;20393;-83
2023/01/30 12:59:20;;;;;;;14.13;2.97;;;6.90;99.90;;;;;;4899523;29;20138;-83
2023/01/30 13:02:00;;;;;;;12.83;3.63;;;6.80;99.90;;;;;;4917251;29;20485;-84
2023/01/30 13:04:40;;;;;;;15.40;3.63;;;8.30;99.90;;;;;;4900878;29;20560;-83
2023/01/30 13:07:19;;;;;;;13.87;3.67;;;6.90;99.90;;;;;;4917690;29;20091;-83
2023/01/30 13:09:48;;;;;;;15.30;3.63;;;6.80;99.90;;;;;;4901055;29;20103;-83
2023/01/30 13:12:45;;;;;;;16.03;4.17;;;6.80;99.90;;;;;;4901144;29;20088;-83
2023/01/30 13:15:13;;;;;;;14.20;3.77;;;7.00;99.90;;;;;;4899598;29;20040;-83
2023/01/30 13:18:16;;;;;;;17.53;3.90;;;7.30;99.90;;;;;;4901167;29;20494;-83
2023/01/30 13:21:05;;;;;;;15.97;3.20;;;7.40;99.90;;;;;;4899816;29;20411;-83
2023/01/30 13:23:43;;;;;;;12.43;3.17;;;7.30;99.90;;;;;;4917499;29;20162;-83
2023/01/30 13:26:40;;;;;;;14.47;3.00;;;7.30;99.90;;;;;;4917253;29;20046;-83
2023/01/30 13:29:30;;;;;;;15.70;3.33;;;8.70;99.90;;;;;;4905199;29;20056;-83
2023/01/30 13:31:59;;;;;;;13.60;2.87;;;8.50;99.90;;;;;;4902919;29;20072;-83
2023/01/30 13:34:32;;;;;;;15.53;2.90;;;7.30;99.90;;;;;;4899808;29;20040;-83
2023/01/30 13:37:04;;;;;;;15.33;2.77;;;7.30;99.90;;;;;;4917330;29;20051;-84
2023/01/30 13:39:39;;;;;;;13.40;2.87;;;7.30;99.90;;;;;;4917565;29;20043;-83
2023/01/30 13:42:25;;;;;;;17.80;3.00;;;7.30;99.90;;;;;;4900343;29;20056;-86
2023/01/30 13:44:52;;;;;;;20.13;3.07;;;8.00;99.90;;;;;;4900179;29;20143;-83
2023/01/30 13:47:38;;;;;;;16.53;4.73;;;8.80;99.90;;;;;;4900751;29;20043;-84
2023/01/30 13:50:22;;;;;;;16.00;3.17;;;7.30;99.90;;;;;;4893014;29;20401;-85
2023/01/30 13:53:03;;;;;;;14.20;2.83;;;7.30;99.90;;;;;;4881218;29;20521;-85
2023/01/30 13:55:47;;;;;;;24.60;4.00;;;8.50;99.90;;;;;;4896380;29;20052;-84
2023/01/30 13:58:43;;;;;;;17.40;3.42;;;7.30;99.90;;;;;;4898379;29;20112;-84
2023/01/30 14:01:12;;;;;;;18.47;3.23;;;7.20;99.90;;;;;;4897781;29;20052;-84
2023/01/30 14:03:39;;;;;;;16.57;2.93;;;7.90;99.90;;;;;;4897291;29;20066;-85